ARG1401 SAME-SABE
Flight info
| Callsign | ARG1401 |
|---|---|
| Flight time | N/A |
| Altitude | 37000 |
| Route | KAMUV2C KAMUV UT670 SNT SNT8Q |
| Aircraft | B738/M-SDFGHILORVW/S |
Departure
| Time | 2026-04-26 01:07 |
|---|---|
| Airport | Governor Francisco Gabrielli International Airport (SAME) |
Arrival
| Time | N/A |
|---|---|
| Airport | Aeroparque Jorge Newbery (SABE) |
| Time | Latitude | Longitude | Altitude | Speed | Heading |
|---|---|---|---|---|---|
| 2026-04-26 00:42 | -32.82809 | -68.79767 | 2319 ft | 0 kts | 270° |
| 2026-04-26 00:57 | -32.82809 | -68.79764 | 2319 ft | 2 kts | 271° |
| 2026-04-26 00:57 | -32.82809 | -68.79745 | 2319 ft | 2 kts | 270° |
| 2026-04-26 00:58 | -32.82810 | -68.79735 | 2319 ft | 2 kts | 268° |
| 2026-04-26 00:58 | -32.82805 | -68.79719 | 2319 ft | 2 kts | 228° |
| 2026-04-26 00:58 | -32.82792 | -68.79708 | 2319 ft | 2 kts | 197° |
| 2026-04-26 00:58 | -32.82785 | -68.79707 | 2319 ft | 1 kts | 179° |
| 2026-04-26 00:59 | -32.82779 | -68.79707 | 2319 ft | 0 kts | 181° |
| 2026-04-26 01:01 | -32.82795 | -68.79707 | 2319 ft | 4 kts | 181° |
| 2026-04-26 01:02 | -32.82851 | -68.79709 | 2319 ft | 11 kts | 181° |
| 2026-04-26 01:02 | -32.82927 | -68.79687 | 2319 ft | 10 kts | 115° |
| 2026-04-26 01:02 | -32.82943 | -68.79609 | 2319 ft | 9 kts | 126° |
| 2026-04-26 01:02 | -32.82993 | -68.79557 | 2319 ft | 10 kts | 140° |
| 2026-04-26 01:03 | -32.83059 | -68.79512 | 2319 ft | 12 kts | 173° |
| 2026-04-26 01:03 | -32.83161 | -68.79511 | 2319 ft | 16 kts | 181° |
| 2026-04-26 01:03 | -32.83263 | -68.79513 | 2319 ft | 19 kts | 181° |
| 2026-04-26 01:03 | -32.83400 | -68.79514 | 2319 ft | 22 kts | 181° |
| 2026-04-26 01:04 | -32.83501 | -68.79517 | 2319 ft | 24 kts | 180° |
| 2026-04-26 01:04 | -32.83670 | -68.79520 | 2319 ft | 22 kts | 181° |
| 2026-04-26 01:04 | -32.83813 | -68.79520 | 2319 ft | 18 kts | 181° |
| 2026-04-26 01:04 | -32.83935 | -68.79522 | 2319 ft | 16 kts | 181° |
| 2026-04-26 01:05 | -32.84043 | -68.79506 | 2319 ft | 14 kts | 150° |
| 2026-04-26 01:05 | -32.84138 | -68.79461 | 2319 ft | 14 kts | 161° |
| 2026-04-26 01:05 | -32.84235 | -68.79421 | 2319 ft | 13 kts | 155° |
| 2026-04-26 01:05 | -32.84307 | -68.79369 | 2319 ft | 10 kts | 145° |
| 2026-04-26 01:06 | -32.84366 | -68.79327 | 2319 ft | 9 kts | 169° |
| 2026-04-26 01:06 | -32.84417 | -68.79325 | 2319 ft | 3 kts | 143° |
| 2026-04-26 01:06 | -32.84406 | -68.79307 | 2319 ft | 4 kts | 19° |
| 2026-04-26 01:06 | -32.84278 | -68.79306 | 2319 ft | 49 kts | 1° |
| 2026-04-26 01:07 | -32.83683 | -68.79297 | 2319 ft | 119 kts | 1° |
| 2026-04-26 01:07 | -32.82648 | -68.79281 | 2324 ft | 175 kts | 2° |
| 2026-04-26 01:07 | -32.81419 | -68.79262 | 2910 ft | 179 kts | 1° |
| 2026-04-26 01:07 | -32.80169 | -68.79272 | 3542 ft | 180 kts | 359° |
| 2026-04-26 01:08 | -32.78904 | -68.79295 | 3945 ft | 189 kts | 359° |
| 2026-04-26 01:08 | -32.77522 | -68.79235 | 4144 ft | 212 kts | 3° |
| 2026-04-26 01:08 | -32.76022 | -68.78793 | 4415 ft | 232 kts | 32° |
| 2026-04-26 01:08 | -32.74865 | -68.77402 | 4713 ft | 251 kts | 64° |
| 2026-04-26 01:09 | -32.74414 | -68.75397 | 5274 ft | 257 kts | 87° |
| 2026-04-26 01:09 | -32.74212 | -68.73241 | 5926 ft | 266 kts | 83° |
| 2026-04-26 01:09 | -32.73922 | -68.71063 | 6657 ft | 270 kts | 83° |
| 2026-04-26 01:09 | -32.73648 | -68.68838 | 7419 ft | 274 kts | 83° |
| 2026-04-26 01:10 | -32.73378 | -68.66595 | 8192 ft | 277 kts | 83° |
| 2026-04-26 01:10 | -32.73107 | -68.64333 | 8968 ft | 279 kts | 82° |
| 2026-04-26 01:10 | -32.73054 | -68.62027 | 9695 ft | 284 kts | 99° |
| 2026-04-26 01:10 | -32.73500 | -68.59712 | 10337 ft | 292 kts | 105° |
| 2026-04-26 01:11 | -32.74007 | -68.57297 | 10616 ft | 314 kts | 104° |
| 2026-04-26 01:11 | -32.74519 | -68.54689 | 11085 ft | 328 kts | 103° |
| 2026-04-26 01:11 | -32.75040 | -68.52055 | 11779 ft | 334 kts | 103° |
| 2026-04-26 01:11 | -32.75582 | -68.49326 | 12496 ft | 339 kts | 103° |
| 2026-04-26 01:12 | -32.76121 | -68.46604 | 13199 ft | 345 kts | 103° |
| 2026-04-26 01:12 | -32.76673 | -68.43815 | 13910 ft | 350 kts | 103° |
| 2026-04-26 01:12 | -32.77231 | -68.40994 | 14610 ft | 355 kts | 103° |
| 2026-04-26 01:12 | -32.77803 | -68.38099 | 15308 ft | 360 kts | 104° |
| 2026-04-26 01:13 | -32.78379 | -68.35180 | 15988 ft | 365 kts | 104° |
| 2026-04-26 01:13 | -32.78966 | -68.32195 | 16652 ft | 370 kts | 103° |
| 2026-04-26 01:13 | -32.79567 | -68.29140 | 17303 ft | 375 kts | 103° |
| 2026-04-26 01:13 | -32.80168 | -68.26083 | 17932 ft | 380 kts | 104° |
| 2026-04-26 01:14 | -32.80779 | -68.22968 | 18548 ft | 385 kts | 104° |
| 2026-04-26 01:14 | -32.81392 | -68.19840 | 19125 ft | 390 kts | 104° |
| 2026-04-26 01:14 | -32.82006 | -68.16701 | 19740 ft | 393 kts | 104° |
| 2026-04-26 01:14 | -32.82626 | -68.13527 | 20315 ft | 396 kts | 104° |
| 2026-04-26 01:15 | -32.83251 | -68.10319 | 20872 ft | 400 kts | 104° |
| 2026-04-26 01:15 | -32.83462 | -68.09240 | 21054 ft | 402 kts | 105° |